createdAt,value
2023-04-07T00:01:36.749Z,5.50
2023-04-07T00:04:03.908Z,5.50
2023-04-07T00:06:31.395Z,5.40
2023-04-07T00:08:58.138Z,5.30
2023-04-07T00:11:24.969Z,5.30
2023-04-07T00:13:52.058Z,5.30
2023-04-07T00:16:19.203Z,5.30
2023-04-07T00:18:47.240Z,5.20
2023-04-07T00:21:14.190Z,5.20
2023-04-07T00:23:41.007Z,5.10
2023-04-07T00:26:07.961Z,5.10
2023-04-07T00:28:36.222Z,5.00
2023-04-07T00:31:03.095Z,5.00
2023-04-07T00:33:29.910Z,4.90
2023-04-07T00:35:58.652Z,5.00
2023-04-07T00:38:25.803Z,4.90
2023-04-07T00:40:59.224Z,4.90
2023-04-07T00:43:26.646Z,4.80
2023-04-07T00:45:54.159Z,4.80
2023-04-07T00:48:21.914Z,4.80
2023-04-07T00:50:48.847Z,4.70
2023-04-07T00:53:16.024Z,4.70
2023-04-07T00:55:43.173Z,4.60
2023-04-07T00:58:10.280Z,4.60
2023-04-07T01:00:55.279Z,4.60
2023-04-07T01:03:34.841Z,4.50
2023-04-07T01:06:05.638Z,4.50
2023-04-07T01:11:32.704Z,4.50
2023-04-07T01:14:00.875Z,4.40
2023-04-07T01:16:40.040Z,4.40
2023-04-07T01:19:32.380Z,4.30
2023-04-07T01:22:00.905Z,4.30
2023-04-07T01:24:58.740Z,4.20
2023-04-07T01:27:42.666Z,4.20
2023-04-07T01:30:13.019Z,4.20
2023-04-07T01:32:41.668Z,4.10
2023-04-07T01:35:12.974Z,4.10
2023-04-07T01:37:40.965Z,4.10
2023-04-07T01:40:08.767Z,4.00
2023-04-07T01:42:38.340Z,4.00
2023-04-07T01:45:06.025Z,4.00
2023-04-07T01:47:34.305Z,4.00
2023-04-07T01:50:04.651Z,4.00
2023-04-07T01:52:33.580Z,3.90
2023-04-07T01:55:00.808Z,3.90
2023-04-07T01:57:28.306Z,3.90
2023-04-07T02:00:00.993Z,3.80
2023-04-07T02:02:45.504Z,3.80
2023-04-07T02:05:20.868Z,3.70
2023-04-07T02:08:01.288Z,3.70
2023-04-07T02:10:30.111Z,3.70
2023-04-07T02:13:00.153Z,3.70
2023-04-07T02:15:27.906Z,3.60
2023-04-07T02:17:56.461Z,3.60
2023-04-07T02:20:24.271Z,3.60
2023-04-07T02:22:51.290Z,3.60
2023-04-07T02:25:29.268Z,3.50
2023-04-07T02:27:57.739Z,3.50
2023-04-07T02:30:24.946Z,3.50
2023-04-07T02:32:52.434Z,3.50
2023-04-07T02:35:20.537Z,3.50
2023-04-07T02:37:47.490Z,3.40
2023-04-07T02:40:14.824Z,3.40
2023-04-07T02:42:42.128Z,3.40
2023-04-07T02:45:10.368Z,3.30
2023-04-07T02:47:38.603Z,3.30
2023-04-07T02:50:05.999Z,3.30
2023-04-07T02:52:35.763Z,3.20
2023-04-07T02:55:07.326Z,3.20
2023-04-07T02:57:35.234Z,3.20
2023-04-07T03:00:05.715Z,3.10
2023-04-07T03:02:50.995Z,3.20
2023-04-07T03:05:18.774Z,3.10
2023-04-07T03:07:45.544Z,3.10
2023-04-07T03:10:12.415Z,3.10
2023-04-07T03:12:39.209Z,3.10
2023-04-07T03:15:07.206Z,3.00
2023-04-07T03:17:35.398Z,3.00
2023-04-07T03:20:02.362Z,3.00
2023-04-07T03:22:30.613Z,3.00
2023-04-07T03:24:57.624Z,3.00
2023-04-07T03:27:25.768Z,3.00
2023-04-07T03:29:53.186Z,3.00
2023-04-07T03:32:20.920Z,3.00
2023-04-07T03:34:47.737Z,3.00
2023-04-07T03:37:14.747Z,2.90
2023-04-07T03:39:42.375Z,2.90
2023-04-07T03:42:24.551Z,2.90
2023-04-07T03:44:56.737Z,2.80
2023-04-07T03:47:24.361Z,2.80
2023-04-07T03:49:56.456Z,2.80
2023-04-07T03:52:23.778Z,2.80
2023-04-07T03:54:54.549Z,2.80
2023-04-07T03:57:26.231Z,2.70
2023-04-07T03:59:53.329Z,2.70
2023-04-07T04:02:20.237Z,2.70
2023-04-07T04:04:51.174Z,2.70
2023-04-07T04:07:18.827Z,2.60
2023-04-07T04:09:49.880Z,2.60
2023-04-07T04:12:17.680Z,2.50
2023-04-07T04:14:59.285Z,2.50
2023-04-07T04:17:27.133Z,2.50
2023-04-07T04:19:55.213Z,2.50
2023-04-07T04:22:27.989Z,2.40
2023-04-07T04:24:57.728Z,2.40
2023-04-07T04:27:26.921Z,2.40
2023-04-07T04:30:01.797Z,2.40
2023-04-07T04:32:38.255Z,2.40
2023-04-07T04:35:06.406Z,2.40
2023-04-07T04:37:37.758Z,2.40
2023-04-07T04:40:10.084Z,2.30
2023-04-07T04:42:37.116Z,2.30
2023-04-07T04:45:05.128Z,2.30
2023-04-07T04:47:33.296Z,2.30
2023-04-07T04:50:03.218Z,2.30
2023-04-07T04:52:34.487Z,2.20
2023-04-07T04:55:02.077Z,2.20
2023-04-07T04:57:29.590Z,2.20
2023-04-07T04:59:57.749Z,2.20
2023-04-07T05:02:24.621Z,2.10
2023-04-07T05:04:52.311Z,2.10
2023-04-07T05:07:25.390Z,2.10
2023-04-07T05:09:52.526Z,2.10
2023-04-07T05:12:22.291Z,2.10
2023-04-07T05:14:55.574Z,2.10
2023-04-07T05:17:23.317Z,2.20
2023-04-07T05:19:50.254Z,2.00
2023-04-07T05:22:28.563Z,2.10
2023-04-07T05:24:55.496Z,2.10
2023-04-07T05:27:22.390Z,2.00
2023-04-07T05:29:53.950Z,2.00
2023-04-07T05:32:29.318Z,2.10
2023-04-07T05:34:57.956Z,2.10
2023-04-07T05:37:29.000Z,2.10
2023-04-07T05:39:57.317Z,2.10
2023-04-07T05:42:24.773Z,2.10
2023-04-07T05:44:54.771Z,2.10
2023-04-07T05:47:23.567Z,2.10
2023-04-07T05:49:51.235Z,2.10
2023-04-07T05:52:18.427Z,2.10
2023-04-07T05:54:51.439Z,2.10
2023-04-07T05:57:18.268Z,2.20
2023-04-07T05:59:47.244Z,2.20
2023-04-07T06:02:14.426Z,2.20
2023-04-07T06:04:41.417Z,2.30
2023-04-07T06:07:11.719Z,2.30
2023-04-07T06:09:42.744Z,2.30
2023-04-07T06:12:10.736Z,2.40
2023-04-07T06:14:37.890Z,2.40
2023-04-07T06:17:05.019Z,2.50
2023-04-07T06:19:32.855Z,2.50
2023-04-07T06:22:01.002Z,2.60
2023-04-07T06:24:27.890Z,2.60
2023-04-07T06:26:56.900Z,2.70
2023-04-07T06:29:23.787Z,2.70
2023-04-07T06:31:51.260Z,2.80
2023-04-07T06:34:19.242Z,2.80
2023-04-07T06:36:46.750Z,2.80
2023-04-07T06:39:13.689Z,2.90
2023-04-07T06:41:43.028Z,2.90
2023-04-07T06:44:13.379Z,3.00
2023-04-07T06:46:41.727Z,2.90
2023-04-07T06:49:08.827Z,3.00
2023-04-07T06:51:35.633Z,3.10
2023-04-07T06:54:02.498Z,3.10
2023-04-07T06:56:29.256Z,3.20
2023-04-07T06:58:56.175Z,3.10
2023-04-07T07:01:22.999Z,3.20
2023-04-07T07:03:50.203Z,3.20
2023-04-07T07:06:17.244Z,3.30
2023-04-07T07:08:44.091Z,3.30
2023-04-07T07:11:11.228Z,3.40
2023-04-07T07:13:38.158Z,3.50
2023-04-07T07:16:05.433Z,3.50
2023-04-07T07:18:32.218Z,3.60
2023-04-07T07:20:59.071Z,3.70
2023-04-07T07:23:25.912Z,3.80
2023-04-07T07:25:52.804Z,3.80
2023-04-07T07:28:21.646Z,3.90
2023-04-07T07:30:48.538Z,4.00
2023-04-07T07:33:15.451Z,4.00
2023-04-07T07:35:42.471Z,4.10
2023-04-07T07:38:09.283Z,4.20
2023-04-07T07:40:36.137Z,4.20
2023-04-07T07:43:02.961Z,4.30
2023-04-07T07:45:29.753Z,4.40
2023-04-07T07:47:56.602Z,4.50
2023-04-07T07:50:23.606Z,4.50
2023-04-07T07:52:50.409Z,4.50
2023-04-07T07:55:17.167Z,4.60
2023-04-07T07:57:44.026Z,4.70
2023-04-07T08:00:12.049Z,4.70
2023-04-07T08:02:41.919Z,4.80
2023-04-07T08:05:09.085Z,4.90
2023-04-07T08:07:36.510Z,4.90
2023-04-07T08:10:03.347Z,5.10
2023-04-07T08:12:30.198Z,5.10
2023-04-07T08:14:56.975Z,5.20
2023-04-07T08:17:23.924Z,5.30
2023-04-07T08:19:50.792Z,5.30
2023-04-07T08:22:19.574Z,5.40
2023-04-07T08:24:47.389Z,5.50
2023-04-07T08:27:14.242Z,5.60
2023-04-07T08:29:41.017Z,5.60
2023-04-07T08:32:07.868Z,5.70
2023-04-07T08:34:34.804Z,5.80
2023-04-07T08:37:01.679Z,5.80
2023-04-07T08:39:28.774Z,5.90
2023-04-07T08:41:57.049Z,6.00
2023-04-07T08:44:27.996Z,6.00
2023-04-07T08:46:57.430Z,6.10
2023-04-07T08:49:27.359Z,6.10
2023-04-07T08:51:56.715Z,6.20
2023-04-07T08:54:24.574Z,6.20
2023-04-07T08:56:52.071Z,6.20
2023-04-07T08:59:18.930Z,6.30
2023-04-07T09:01:47.370Z,6.30
2023-04-07T09:04:14.539Z,6.30
2023-04-07T09:06:41.380Z,6.30
2023-04-07T09:09:08.211Z,6.40
2023-04-07T09:11:37.334Z,6.50
2023-04-07T09:14:04.669Z,6.50
2023-04-07T09:16:32.092Z,6.50
2023-04-07T09:18:59.332Z,6.60
2023-04-07T09:21:27.352Z,6.60
2023-04-07T09:23:54.214Z,6.70
2023-04-07T09:26:27.221Z,6.70
2023-04-07T09:29:04.041Z,6.80
2023-04-07T09:31:51.684Z,6.90
2023-04-07T09:34:26.176Z,6.80
2023-04-07T09:36:52.995Z,7.00
2023-04-07T09:39:20.325Z,7.00
2023-04-07T09:41:47.579Z,7.00
2023-04-07T09:44:14.551Z,7.00
2023-04-07T09:46:58.650Z,7.10
2023-04-07T09:49:26.470Z,7.10
2023-04-07T09:51:57.759Z,7.20
2023-04-07T09:54:42.029Z,7.20
2023-04-07T09:57:12.247Z,7.30
2023-04-07T09:59:42.448Z,7.40
2023-04-07T10:02:09.367Z,7.40
2023-04-07T10:04:37.517Z,7.50
2023-04-07T10:07:05.488Z,7.50
2023-04-07T10:09:32.709Z,7.60
2023-04-07T10:12:00.049Z,7.70
2023-04-07T10:14:31.727Z,7.70
2023-04-07T10:17:03.326Z,7.80
2023-04-07T10:19:34.073Z,7.90
2023-04-07T10:22:03.012Z,7.80
2023-04-07T10:24:58.843Z,7.90
2023-04-07T10:27:58.210Z,8.00
2023-04-07T10:30:35.479Z,8.00
2023-04-07T10:33:02.869Z,8.10
2023-04-07T10:36:09.642Z,8.10
2023-04-07T10:39:09.436Z,8.20
2023-04-07T10:41:42.369Z,8.30
2023-04-07T10:44:31.139Z,8.30
2023-04-07T10:47:05.955Z,8.40
2023-04-07T10:49:34.578Z,8.50
2023-04-07T10:52:23.074Z,8.60
2023-04-07T10:55:29.804Z,8.60
2023-04-07T10:58:29.112Z,8.70
2023-04-07T11:01:07.899Z,8.80
2023-04-07T11:03:36.791Z,8.90
2023-04-07T11:06:08.629Z,9.00
2023-04-07T11:08:36.975Z,9.00
2023-04-07T11:11:09.570Z,9.10
2023-04-07T11:13:43.550Z,9.20
2023-04-07T11:16:11.316Z,9.20
2023-04-07T11:18:38.895Z,9.20
2023-04-07T11:21:08.321Z,9.20
2023-04-07T11:23:42.355Z,9.30
2023-04-07T11:26:12.941Z,9.50
2023-04-07T11:28:51.620Z,9.60
2023-04-07T11:31:31.952Z,9.60
2023-04-07T11:34:00.701Z,9.70
2023-04-07T11:36:41.652Z,9.70
2023-04-07T11:39:21.535Z,9.80
2023-04-07T11:41:50.570Z,9.90
2023-04-07T11:44:17.871Z,10.00
2023-04-07T11:46:55.486Z,10.00
2023-04-07T11:49:26.065Z,10.10
2023-04-07T11:52:04.392Z,10.20
2023-04-07T11:54:46.974Z,10.30
2023-04-07T11:57:14.581Z,10.40
2023-04-07T11:59:41.906Z,10.40
2023-04-07T12:02:09.422Z,10.50
2023-04-07T12:04:40.146Z,10.50
2023-04-07T12:07:11.724Z,10.60
2023-04-07T12:09:38.719Z,10.70
2023-04-07T12:12:07.930Z,10.80
2023-04-07T12:14:35.985Z,10.90
2023-04-07T12:17:03.729Z,11.00
2023-04-07T12:19:36.213Z,11.10
2023-04-07T12:22:03.947Z,11.20
2023-04-07T12:24:32.313Z,11.30
2023-04-07T12:26:59.682Z,11.40
2023-04-07T12:29:26.703Z,11.60
2023-04-07T12:31:53.617Z,11.60
2023-04-07T12:34:20.655Z,11.50
2023-04-07T12:36:48.152Z,11.90
2023-04-07T12:39:16.467Z,12.00
2023-04-07T12:41:45.373Z,12.10
2023-04-07T12:44:12.132Z,12.20
2023-04-07T12:46:38.952Z,12.20
2023-04-07T12:49:05.949Z,12.40
2023-04-07T12:51:33.776Z,12.60
2023-04-07T12:54:00.865Z,12.70
2023-04-07T12:56:28.619Z,12.80
2023-04-07T12:58:55.466Z,12.90
2023-04-07T13:01:22.321Z,13.10
2023-04-07T13:03:49.468Z,13.10
2023-04-07T13:06:17.456Z,13.40
2023-04-07T13:08:44.249Z,13.50
2023-04-07T13:11:11.160Z,13.70
2023-04-07T13:13:38.052Z,13.80
2023-04-07T13:16:05.032Z,14.00
2023-04-07T13:18:31.812Z,14.10
2023-04-07T13:21:33.735Z,14.30
2023-04-07T13:23:46.544Z,14.40
2023-04-07T13:26:13.428Z,14.50
2023-04-07T13:28:40.474Z,14.70
2023-04-07T13:31:07.762Z,14.80
2023-04-07T13:33:35.319Z,14.90
2023-04-07T13:36:02.199Z,15.00
2023-04-07T13:38:29.162Z,15.10
2023-04-07T13:40:55.952Z,15.30
2023-04-07T13:43:22.786Z,15.50
2023-04-07T13:45:49.927Z,15.70
2023-04-07T13:48:17.181Z,15.90
2023-04-07T13:50:44.051Z,16.00
2023-04-07T13:53:10.864Z,16.10
2023-04-07T13:55:37.773Z,16.20
2023-04-07T13:58:04.938Z,16.20
2023-04-07T14:00:31.990Z,16.10
2023-04-07T14:02:59.267Z,16.30
2023-04-07T14:05:26.466Z,16.40
2023-04-07T14:07:54.400Z,16.60
2023-04-07T14:10:21.587Z,16.80
2023-04-07T14:12:48.464Z,16.90
2023-04-07T14:15:16.435Z,17.10
2023-04-07T14:17:45.382Z,17.20
2023-04-07T14:20:12.234Z,17.30
2023-04-07T14:22:39.099Z,17.30
2023-04-07T14:25:06.462Z,17.40
2023-04-07T14:27:33.401Z,17.50
2023-04-07T14:30:00.315Z,17.60
2023-04-07T14:32:29.424Z,17.80
2023-04-07T14:34:56.667Z,17.80
2023-04-07T14:37:26.439Z,17.90
2023-04-07T14:40:02.514Z,18.10
2023-04-07T14:42:31.182Z,18.10
2023-04-07T14:44:59.648Z,18.20
2023-04-07T14:47:27.364Z,18.30
2023-04-07T14:49:54.485Z,18.30
2023-04-07T14:52:24.638Z,18.50
2023-04-07T14:54:51.682Z,18.60
2023-04-07T14:57:18.476Z,18.70
2023-04-07T14:59:47.238Z,18.60
2023-04-07T15:02:14.039Z,18.70
2023-04-07T15:04:41.041Z,18.80
2023-04-07T15:07:08.102Z,18.90
2023-04-07T15:09:34.894Z,18.90
2023-04-07T15:12:02.200Z,19.10
2023-04-07T15:14:29.510Z,19.10
2023-04-07T15:16:56.288Z,19.20
2023-04-07T15:19:23.066Z,19.20
2023-04-07T15:21:49.809Z,19.20
2023-04-07T15:24:16.805Z,19.20
2023-04-07T15:26:43.804Z,19.10
2023-04-07T15:29:10.624Z,19.10
2023-04-07T15:31:37.637Z,19.10
2023-04-07T15:34:05.318Z,19.10
2023-04-07T15:36:32.325Z,19.10
2023-04-07T15:39:04.218Z,19.10
2023-04-07T15:41:31.585Z,19.10
2023-04-07T15:44:02.780Z,19.10
2023-04-07T15:46:29.700Z,19.10
2023-04-07T15:48:56.474Z,19.20
2023-04-07T15:51:23.757Z,19.20
2023-04-07T15:53:50.662Z,19.20
2023-04-07T15:56:17.671Z,19.30
2023-04-07T15:58:45.898Z,19.20
2023-04-07T16:01:13.003Z,19.20
2023-04-07T16:03:40.138Z,19.20
2023-04-07T16:06:07.087Z,19.20
2023-04-07T16:08:33.914Z,19.10
2023-04-07T16:11:00.774Z,19.10
2023-04-07T16:13:27.540Z,19.10
2023-04-07T16:15:57.689Z,19.10
2023-04-07T16:18:24.556Z,19.10
2023-04-07T16:20:51.502Z,19.00
2023-04-07T16:23:18.312Z,19.00
2023-04-07T16:25:45.516Z,19.00
2023-04-07T16:28:12.306Z,19.00
2023-04-07T16:30:39.151Z,18.90
2023-04-07T16:33:06.105Z,18.90
2023-04-07T16:35:32.985Z,18.90
2023-04-07T16:38:04.459Z,18.80
2023-04-07T16:40:32.268Z,18.80
2023-04-07T16:42:59.310Z,18.80
2023-04-07T16:45:26.216Z,18.70
2023-04-07T16:47:53.313Z,18.60
2023-04-07T16:50:20.425Z,18.60
2023-04-07T16:52:47.819Z,18.50
2023-04-07T16:55:14.719Z,18.40
2023-04-07T16:57:41.551Z,18.30
2023-04-07T17:00:09.268Z,18.20
2023-04-07T17:02:36.329Z,18.20
2023-04-07T17:05:03.696Z,18.10
2023-04-07T17:07:30.462Z,18.00
2023-04-07T17:09:57.381Z,17.90
2023-04-07T17:12:24.164Z,17.90
2023-04-07T17:14:51.004Z,17.80
2023-04-07T17:17:17.864Z,17.70
2023-04-07T17:19:44.856Z,17.60
2023-04-07T17:22:11.687Z,17.50
2023-04-07T17:24:38.539Z,17.40
2023-04-07T17:27:05.559Z,17.30
2023-04-07T17:29:33.581Z,17.10
2023-04-07T17:32:00.501Z,17.00
2023-04-07T17:34:27.850Z,16.90
2023-04-07T17:36:54.729Z,16.70
2023-04-07T17:39:22.087Z,16.60
2023-04-07T17:41:48.957Z,16.50
2023-04-07T17:44:15.968Z,16.40
2023-04-07T17:46:42.983Z,16.20
2023-04-07T17:49:10.013Z,16.00
2023-04-07T17:51:37.020Z,15.80
2023-04-07T17:54:04.238Z,15.70
2023-04-07T17:56:30.983Z,15.50
2023-04-07T17:58:57.847Z,15.30
2023-04-07T18:01:25.005Z,15.10
2023-04-07T18:03:53.509Z,14.90
2023-04-07T18:06:21.010Z,14.70
2023-04-07T18:08:48.714Z,14.60
2023-04-07T18:11:16.159Z,14.50
2023-04-07T18:13:43.140Z,14.40
2023-04-07T18:16:11.921Z,14.40
2023-04-07T18:18:39.010Z,14.30
2023-04-07T18:21:07.101Z,14.20
2023-04-07T18:23:34.549Z,14.20
2023-04-07T18:26:05.167Z,14.10
2023-04-07T18:28:32.466Z,14.00
2023-04-07T18:31:07.689Z,14.00
2023-04-07T18:33:35.816Z,13.90
2023-04-07T18:36:07.631Z,13.80
2023-04-07T18:38:35.756Z,13.70
2023-04-07T18:41:02.638Z,13.60
2023-04-07T18:43:30.243Z,13.40
2023-04-07T18:45:57.082Z,13.30
2023-04-07T18:48:24.089Z,13.20
2023-04-07T18:50:54.720Z,13.10
2023-04-07T18:53:29.536Z,13.00
2023-04-07T18:56:11.102Z,12.90
2023-04-07T18:58:49.000Z,12.70
2023-04-07T19:01:26.863Z,12.60
2023-04-07T19:04:01.379Z,12.50
2023-04-07T19:06:39.022Z,12.40
2023-04-07T19:09:16.496Z,12.30
2023-04-07T19:11:54.688Z,12.20
2023-04-07T19:14:29.892Z,12.10
2023-04-07T19:16:58.384Z,12.10
2023-04-07T19:19:25.262Z,12.00
2023-04-07T19:21:52.125Z,11.90
2023-04-07T19:24:19.063Z,11.90
2023-04-07T19:26:46.048Z,11.80
2023-04-07T19:29:12.789Z,11.80
2023-04-07T19:31:39.999Z,11.70
2023-04-07T19:34:06.813Z,11.70
2023-04-07T19:36:33.633Z,11.60
2023-04-07T19:39:00.494Z,11.50
2023-04-07T19:41:27.774Z,11.50
2023-04-07T19:43:54.647Z,11.40
2023-04-07T19:46:21.635Z,11.30
2023-04-07T19:48:48.582Z,11.30
2023-04-07T19:51:16.551Z,11.30
2023-04-07T19:53:43.480Z,11.20
2023-04-07T19:56:11.202Z,11.20
2023-04-07T19:58:38.561Z,11.10
2023-04-07T20:01:05.636Z,10.90
2023-04-07T20:03:32.590Z,11.00
2023-04-07T20:05:59.660Z,10.90
2023-04-07T20:08:26.761Z,11.00
2023-04-07T20:10:53.908Z,10.90
2023-04-07T20:13:23.884Z,10.90
2023-04-07T20:15:50.930Z,10.80
2023-04-07T20:18:18.513Z,10.70
2023-04-07T20:20:45.976Z,10.60
2023-04-07T20:23:14.822Z,10.60
2023-04-07T20:25:42.504Z,10.50
2023-04-07T20:28:09.305Z,10.50
2023-04-07T20:30:36.670Z,10.50
2023-04-07T20:33:03.666Z,10.40
2023-04-07T20:35:30.589Z,10.40
2023-04-07T20:37:57.433Z,10.30
2023-04-07T20:40:24.275Z,10.20
2023-04-07T20:42:51.093Z,10.30
2023-04-07T20:45:17.998Z,10.30
2023-04-07T20:47:45.481Z,10.20
2023-04-07T20:50:12.405Z,10.20
2023-04-07T20:52:40.356Z,10.10
2023-04-07T20:55:08.058Z,10.00
2023-04-07T20:57:34.937Z,10.00
2023-04-07T21:00:02.568Z,9.90
2023-04-07T21:02:29.603Z,9.90
2023-04-07T21:04:56.818Z,9.90
2023-04-07T21:07:24.287Z,9.90
2023-04-07T21:09:51.233Z,9.70
2023-04-07T21:12:18.137Z,9.70
2023-04-07T21:14:45.672Z,9.60
2023-04-07T21:17:12.410Z,9.60
2023-04-07T21:19:39.280Z,9.70
2023-04-07T21:22:06.051Z,9.60
2023-04-07T21:24:33.095Z,9.60
2023-04-07T21:26:59.832Z,9.50
2023-04-07T21:29:29.686Z,9.40
2023-04-07T21:31:56.491Z,9.40
2023-04-07T21:34:23.279Z,9.40
2023-04-07T21:36:50.107Z,9.30
2023-04-07T21:39:16.938Z,9.20
2023-04-07T21:41:43.712Z,9.20
2023-04-07T21:44:11.109Z,9.20
2023-04-07T21:46:38.058Z,9.10
2023-04-07T21:49:05.099Z,9.10
2023-04-07T21:51:33.243Z,9.10
2023-04-07T21:54:00.259Z,9.00
2023-04-07T21:56:28.968Z,9.00
2023-04-07T21:58:56.196Z,9.00
2023-04-07T22:01:23.040Z,8.90
2023-04-07T22:03:50.591Z,8.90
2023-04-07T22:06:17.473Z,8.80
2023-04-07T22:08:51.668Z,8.60
2023-04-07T22:11:27.892Z,8.70
2023-04-07T22:13:54.716Z,8.70
2023-04-07T22:16:21.594Z,8.60
2023-04-07T22:18:49.031Z,8.60
2023-04-07T22:21:16.249Z,8.60
2023-04-07T22:23:43.809Z,8.60
2023-04-07T22:26:10.675Z,8.50
2023-04-07T22:28:37.442Z,8.50
2023-04-07T22:31:04.649Z,8.50
2023-04-07T22:33:31.606Z,8.50
2023-04-07T22:35:58.581Z,8.50
2023-04-07T22:38:25.509Z,8.50
2023-04-07T22:40:52.373Z,8.50
2023-04-07T22:43:19.111Z,8.50
2023-04-07T22:45:46.277Z,8.60
2023-04-07T22:48:13.371Z,8.50
2023-04-07T22:50:40.298Z,8.60
2023-04-07T22:53:07.910Z,8.60
2023-04-07T22:55:35.320Z,8.60
2023-04-07T22:58:02.168Z,8.60
2023-04-07T23:00:29.075Z,8.50
2023-04-07T23:02:55.916Z,8.60
2023-04-07T23:05:22.903Z,8.50
2023-04-07T23:07:51.936Z,8.50
2023-04-07T23:10:18.824Z,8.50
2023-04-07T23:12:46.341Z,8.50
2023-04-07T23:15:13.262Z,8.40
2023-04-07T23:17:40.495Z,8.40
2023-04-07T23:20:08.177Z,8.40
2023-04-07T23:22:34.934Z,8.40
2023-04-07T23:25:01.834Z,8.40
2023-04-07T23:27:28.597Z,8.30
2023-04-07T23:29:55.541Z,8.40
2023-04-07T23:32:22.714Z,8.40
2023-04-07T23:34:49.519Z,8.40
2023-04-07T23:37:16.306Z,8.30
2023-04-07T23:39:43.544Z,8.40
2023-04-07T23:42:10.578Z,8.40
2023-04-07T23:44:37.370Z,8.40
2023-04-07T23:47:04.189Z,8.30
2023-04-07T23:49:31.244Z,8.30
2023-04-07T23:51:58.012Z,8.40
2023-04-07T23:54:24.957Z,8.40
2023-04-07T23:56:51.967Z,8.40
2023-04-07T23:59:18.976Z,8.30
